»·PEaware :: N698J KLAX-KSAN

N698J :: KLAX-KSAN

FLIGHT INFORMATION

Flight Status: Arrived
Operator: Privately registered:
United States
More flights under this callsign
Pilot: Ahmad S. (5672)
Aircraft: BEECH AIRCRAFT BARON
(BE58)
More flights by this aircraft type
Origin: KLAX Los Angeles Intl
United States
Destination: KSAN San Diego Intl-Lindbergh
United States
More flights between these airports :: More routes between these airports
Route: +
File this flight plan on PilotEdge
Remarks: CAT11
Altitude:
(Current/Filed)
3,500ft
Speed:
(Current/Filed)
150kts
Departed: 09-Feb-20 02:22 PM
Arrived: 09-Feb-20 03:25 PM
Distance/Time
Traveled:
95nm/1:03
Distance/Time
To Go:
Arrived

Flight Plot

Page will automatically refresh every two minutes.


Map Options




Map Legend


Flown Route
Filed Route
Departure Airport
Arrival Airport
Navaid (VOR, NDB)
Fix

Horizontal Profiles

Position Reports

Time Latitude Longitude Heading Altitude Ground
Speed
09-Feb-20 14:09 33.941218 -118.394054 271 129ft 0kts
09-Feb-20 14:10 33.941218 -118.394054 271 129ft 0kts
09-Feb-20 14:11 33.941218 -118.394054 271 129ft 0kts
09-Feb-20 14:12 33.941218 -118.394054 271 129ft 0kts
09-Feb-20 14:13 33.941218 -118.394054 271 129ft 0kts
09-Feb-20 14:14 33.941218 -118.394054 271 129ft 0kts
09-Feb-20 14:15 33.941219 -118.394096 271 129ft 3kts
09-Feb-20 14:16 33.940735 -118.394306 201 129ft 0kts
09-Feb-20 14:17 33.939449 -118.393704 85 129ft 15kts
09-Feb-20 14:18 33.940319 -118.385225 82 129ft 30kts
09-Feb-20 14:19 33.940661 -118.380522 119 129ft 0kts
09-Feb-20 14:20 33.940658 -118.380516 119 129ft 0kts
09-Feb-20 14:21 33.939672 -118.382444 262 129ft 55kts
09-Feb-20 14:22 33.938238 -118.412467 267 1087ft 112kts
09-Feb-20 14:23 33.938180 -118.459234 267 2070ft 161kts
09-Feb-20 14:24 33.937265 -118.518964 267 2411ft 195kts
09-Feb-20 14:25 33.902893 -118.545129 147 2864ft 171kts
09-Feb-20 14:26 33.862390 -118.511610 142 2999ft 184kts
09-Feb-20 14:28 33.820097 -118.475518 142 2998ft 186kts
09-Feb-20 14:29 33.777748 -118.439340 142 2999ft 187kts
09-Feb-20 14:30 33.735457 -118.403152 142 2998ft 187kts
09-Feb-20 14:31 33.693048 -118.366851 142 2997ft 187kts
09-Feb-20 14:32 33.650047 -118.329994 142 2730ft 197kts
09-Feb-20 14:33 33.605456 -118.291674 142 2491ft 193kts
09-Feb-20 14:34 33.564867 -118.251063 126 2490ft 188kts
09-Feb-20 14:35 33.536786 -118.198340 120 2488ft 187kts
09-Feb-20 14:36 33.509619 -118.144916 120 2485ft 187kts
09-Feb-20 14:37 33.478872 -118.094819 139 2370ft 194kts
09-Feb-20 14:38 33.434332 -118.055581 142 1993ft 196kts
09-Feb-20 14:39 33.390655 -118.017684 142 1993ft 191kts
09-Feb-20 14:40 33.347822 -117.980174 142 1997ft 190kts
09-Feb-20 14:41 33.305728 -117.941921 140 1998ft 190kts
09-Feb-20 14:42 33.264061 -117.902541 140 1998ft 191kts
09-Feb-20 14:43 33.222541 -117.863171 140 2002ft 190kts
09-Feb-20 14:44 33.181264 -117.823390 140 2002ft 191kts
09-Feb-20 14:45 33.139882 -117.783280 140 2002ft 191kts
09-Feb-20 14:46 33.098652 -117.743240 140 2005ft 191kts
09-Feb-20 14:47 33.055851 -117.701513 140 1536ft 202kts
09-Feb-20 14:47 33.020487 -117.666575 140 1507ft 194kts
09-Feb-20 14:49 33.015858 -117.602577 71 1509ft 184kts
09-Feb-20 14:50 33.034305 -117.545919 70 1507ft 182kts
09-Feb-20 14:51 33.052697 -117.489699 70 1508ft 182kts
09-Feb-20 14:51 33.067981 -117.442862 70 1503ft 183kts
09-Feb-20 14:52 33.086422 -117.385805 70 1502ft 184kts
09-Feb-20 14:54 33.105720 -117.326213 70 2312ft 139kts
09-Feb-20 14:54 33.116256 -117.292881 70 3081ft 118kts
09-Feb-20 14:55 33.128392 -117.253197 73 3530ft 161kts
09-Feb-20 14:56 33.115147 -117.197557 123 3504ft 189kts
09-Feb-20 14:57 33.082140 -117.147668 127 3504ft 193kts
09-Feb-20 14:58 33.050467 -117.095638 124 3506ft 194kts
09-Feb-20 14:59 33.020042 -117.042425 124 3514ft 194kts
09-Feb-20 15:00 32.989039 -116.989351 125 3510ft 196kts
09-Feb-20 15:01 32.957413 -116.936202 125 3514ft 196kts
09-Feb-20 15:02 32.937781 -116.879874 59 3503ft 171kts
09-Feb-20 15:03 32.962952 -116.892255 273 3512ft 124kts
09-Feb-20 15:04 32.966935 -116.935384 277 3047ft 138kts
09-Feb-20 15:05 32.971177 -116.977663 278 3002ft 120kts
09-Feb-20 15:06 32.982658 -117.012860 311 3009ft 112kts
09-Feb-20 15:07 33.017659 -117.044805 324 3020ft 185kts
09-Feb-20 15:08 33.055236 -117.088961 304 3005ft 194kts
09-Feb-20 15:09 33.084534 -117.143202 297 2995ft 195kts
09-Feb-20 15:10 33.104772 -117.203608 287 2990ft 196kts
09-Feb-20 15:11 33.117908 -117.266453 271 2989ft 196kts
09-Feb-20 15:12 33.109625 -117.330865 252 2839ft 202kts
09-Feb-20 15:13 33.084479 -117.390614 202 2164ft 209kts
09-Feb-20 15:14 33.028351 -117.378408 155 1509ft 204kts
09-Feb-20 15:15 32.980580 -117.345642 150 1493ft 194kts
09-Feb-20 15:16 32.934640 -117.312319 149 1489ft 188kts
09-Feb-20 15:17 32.891456 -117.280883 149 1491ft 176kts
09-Feb-20 15:18 32.850585 -117.249988 148 1500ft 173kts
09-Feb-20 15:19 32.807623 -117.219659 155 1520ft 187kts
09-Feb-20 15:20 32.763892 -117.196627 151 1102ft 148kts
09-Feb-20 15:21 32.750579 -117.154525 108 1056ft 128kts
09-Feb-20 15:22 32.728251 -117.145681 193 606ft 93kts
09-Feb-20 15:23 32.728849 -117.170887 286 289ft 90kts
09-Feb-20 15:24 32.733524 -117.189447 301 18ft 7kts
09-Feb-20 15:25 32.734266 -117.190089 5 18ft 0kts
09-Feb-20 15:26 32.734270 -117.190088 5 18ft 0kts
09-Feb-20 15:27 32.734787 -117.189808 169 18ft 0kts

Navigation Log

Ident Type
Flight plan parsing failed, navigation log unavailable